Time;durP1;ratioP1;P1;durP2;ratioP2;P2;SDS_P1;SDS_P2;PMS_P1;PMS_P2;Temp;Humidity;BMP_temperature;BMP_pressure;BME280_temperature;BME280_humidity;BME280_pressure;Samples;Min_cycle;Max_cycle;Signal;HPM_P1;HPM_P2
2022/05/22 00:02:11;;;;;;;5.38;1.30;;;;;;;-145.23;100.00;58621.06;5019281;28;20342;-52
2022/05/22 00:04:38;;;;;;;4.78;1.48;;;;;;;-145.23;100.00;58621.06;5022554;28;20264;-52
2022/05/22 00:07:05;;;;;;;2.13;1.10;;;;;;;-145.23;100.00;58621.06;5023111;28;20260;-52
2022/05/22 00:09:33;;;;;;;1.70;1.30;;;;;;;-145.23;100.00;58621.06;5019737;28;20229;-53
2022/05/22 00:11:59;;;;;;;4.18;1.80;;;;;;;-145.23;100.00;58621.06;5023489;28;20232;-53
2022/05/22 00:14:26;;;;;;;3.50;1.30;;;;;;;-145.23;100.00;58621.06;5020033;28;20255;-53
2022/05/22 00:16:53;;;;;;;1.90;1.30;;;;;;;-145.23;100.00;58621.06;5022469;28;20308;-53
2022/05/22 00:19:21;;;;;;;2.05;1.20;;;;;;;-145.23;100.00;58621.06;5021309;28;20232;-52
2022/05/22 00:21:48;;;;;;;3.35;1.23;;;;;;;-145.23;100.00;58621.06;5023365;28;20649;-53
2022/05/22 00:24:15;;;;;;;3.78;1.50;;;;;;;-145.23;100.00;58621.06;5014862;28;20233;-52
2022/05/22 00:26:43;;;;;;;1.85;1.50;;;;;;;-145.23;100.00;58621.06;5029148;28;20224;-51
2022/05/22 00:29:09;;;;;;;4.60;1.50;;;;;;;-145.23;100.00;58621.06;5020452;28;20305;-52
2022/05/22 00:31:36;;;;;;;4.43;1.33;;;;;;;-145.23;100.00;58621.06;5022837;28;20267;-52
2022/05/22 00:34:02;;;;;;;2.20;1.27;;;;;;;-145.23;100.00;58621.06;5015245;28;20719;-53
2022/05/22 00:36:29;;;;;;;2.45;1.30;;;;;;;-145.23;100.00;58621.06;5019439;28;20313;-55
2022/05/22 00:38:56;;;;;;;2.05;1.25;;;;;;;-145.23;100.00;58621.06;5018957;28;20649;-51
2022/05/22 00:41:22;;;;;;;2.55;1.30;;;;;;;-145.23;100.00;58621.06;5026219;28;20747;-52
2022/05/22 00:43:51;;;;;;;4.60;1.48;;;;;;;-145.23;100.00;58621.06;5021920;28;20306;-53
2022/05/22 00:46:19;;;;;;;2.28;1.13;;;;;;;-145.23;100.00;58621.06;5017542;28;20236;-54
2022/05/22 00:48:48;;;;;;;1.70;0.95;;;;;;;-145.23;100.00;58621.06;5014790;28;20290;-52
2022/05/22 00:51:19;;;;;;;1.83;1.08;;;;;;;-145.23;100.00;58621.06;5016574;28;21326;-53
2022/05/22 00:53:49;;;;;;;3.38;1.20;;;;;;;-145.23;100.00;58621.06;5017793;28;20303;-52
2022/05/22 00:56:22;;;;;;;2.78;1.58;;;;;;;-145.23;100.00;58621.06;5020053;28;20242;-54
2022/05/22 00:58:51;;;;;;;2.22;1.50;;;;;;;-145.23;100.00;58621.06;5019148;28;20686;-58
2022/05/22 01:01:18;;;;;;;2.75;1.15;;;;;;;-145.23;100.00;58621.06;5017078;28;20244;-53
2022/05/22 01:03:45;;;;;;;3.85;1.30;;;;;;;-145.23;100.00;58621.06;5020166;28;20225;-52
2022/05/22 01:06:16;;;;;;;5.13;1.38;;;;;;;-145.23;100.00;58621.06;5021760;28;20236;-51
2022/05/22 01:08:43;;;;;;;3.30;1.55;;;;;;;-145.23;100.00;58621.06;5001492;28;20314;-52
2022/05/22 01:11:11;;;;;;;3.65;1.25;;;;;;;-145.23;100.00;58621.06;5012450;28;20240;-52
2022/05/22 01:13:39;;;;;;;3.75;1.65;;;;;;;-145.23;100.00;58621.06;5012562;28;20264;-52
2022/05/22 01:16:07;;;;;;;4.53;1.33;;;;;;;-145.23;100.00;58621.06;5022081;28;20294;-53
2022/05/22 01:18:41;;;;;;;3.38;1.60;;;;;;;-145.23;100.00;58621.06;5020995;28;20238;-53
2022/05/22 01:21:11;;;;;;;1.77;1.20;;;;;;;-145.23;100.00;58621.06;5014455;28;20236;-53
2022/05/22 01:23:39;;;;;;;2.42;1.83;;;;;;;-145.23;100.00;58621.06;5020503;28;20247;-51
2022/05/22 01:26:05;;;;;;;1.83;1.10;;;;;;;-145.23;100.00;58621.06;5015887;28;20263;-51
2022/05/22 01:28:32;;;;;;;4.35;1.58;;;;;;;-145.23;100.00;58621.06;5017209;28;20267;-54
2022/05/22 01:31:00;;;;;;;7.10;1.70;;;;;;;-145.23;100.00;58621.06;5002972;28;20770;-53
2022/05/22 01:33:26;;;;;;;5.00;1.40;;;;;;;-145.23;100.00;58621.06;5011527;28;20232;-55
2022/05/22 01:35:53;;;;;;;3.35;1.40;;;;;;;-145.23;100.00;58621.06;5019653;28;20723;-51
2022/05/22 01:38:20;;;;;;;4.68;1.65;;;;;;;-145.23;100.00;58621.06;5020746;28;20232;-52
2022/05/22 01:40:48;;;;;;;4.80;1.55;;;;;;;-145.23;100.00;58621.06;5022708;28;20236;-52
2022/05/22 01:43:14;;;;;;;5.13;1.40;;;;;;;-145.23;100.00;58621.06;5024506;28;20241;-52
2022/05/22 01:45:42;;;;;;;3.88;1.80;;;;;;;-145.23;100.00;58621.06;5023112;28;20225;-54
2022/05/22 01:48:10;;;;;;;4.32;1.27;;;;;;;-145.23;100.00;58621.06;5028462;28;20268;-53
2022/05/22 01:50:36;;;;;;;2.15;1.35;;;;;;;-145.23;100.00;58621.06;5016837;28;20237;-52
2022/05/22 01:53:03;;;;;;;3.22;1.50;;;;;;;-145.23;100.00;58621.06;5025743;28;20221;-52
2022/05/22 01:55:29;;;;;;;5.65;1.85;;;;;;;-145.23;100.00;58621.06;5025193;28;20236;-53
2022/05/22 01:57:57;;;;;;;1.65;1.25;;;;;;;-145.23;100.00;58621.06;5024548;28;20267;-52
2022/05/22 02:00:24;;;;;;;2.27;1.30;;;;;;;-145.23;100.00;58621.06;5014251;28;20240;-52
2022/05/22 02:02:51;;;;;;;3.22;1.48;;;;;;;-145.23;100.00;58621.06;5019169;28;20714;-52
2022/05/22 02:05:18;;;;;;;3.92;1.25;;;;;;;-145.23;100.00;58621.06;5020874;28;20228;-53
2022/05/22 02:10:28;;;;;;;2.97;1.35;;;;;;;-145.23;100.00;58621.06;5020914;28;20298;-52
2022/05/22 02:12:54;;;;;;;5.55;2.03;;;;;;;-145.23;100.00;58621.06;5022438;28;20359;-52
2022/05/22 02:15:23;;;;;;;3.28;1.52;;;;;;;-145.23;100.00;58621.06;5012812;28;20229;-53
2022/05/22 02:17:49;;;;;;;3.30;1.15;;;;;;;-145.23;100.00;58621.06;5011993;28;20824;-52
2022/05/22 02:20:16;;;;;;;3.40;1.63;;;;;;;-145.23;100.00;58621.06;5023271;28;20236;-51
2022/05/22 02:22:43;;;;;;;2.63;1.27;;;;;;;-145.23;100.00;58621.06;5029763;28;20269;-53
2022/05/22 02:25:10;;;;;;;4.07;1.77;;;;;;;-145.23;100.00;58621.06;5027030;28;20260;-53
2022/05/22 02:27:36;;;;;;;7.32;1.77;;;;;;;-145.23;100.00;58621.06;5024124;28;20237;-52
2022/05/22 02:30:05;;;;;;;4.90;1.40;;;;;;;-145.23;100.00;58621.06;5026291;28;20718;-51
2022/05/22 02:32:33;;;;;;;7.07;1.80;;;;;;;-145.23;100.00;58621.06;5019481;28;20251;-53
2022/05/22 02:34:59;;;;;;;2.80;1.13;;;;;;;-145.23;100.00;58621.06;5026110;28;20542;-53
2022/05/22 02:37:26;;;;;;;6.22;2.15;;;;;;;-145.23;100.00;58621.06;5027181;28;20700;-51
2022/05/22 02:39:52;;;;;;;2.10;1.30;;;;;;;-145.23;100.00;58621.06;5019459;28;20268;-52
2022/05/22 02:42:18;;;;;;;2.43;1.30;;;;;;;-145.23;100.00;58621.06;5019474;28;20233;-54
2022/05/22 02:44:45;;;;;;;5.93;1.93;;;;;;;-145.23;100.00;58621.06;5021012;28;20228;-53
2022/05/22 02:47:11;;;;;;;4.38;2.75;;;;;;;-145.23;100.00;58621.06;5021270;28;20243;-52
2022/05/22 02:49:39;;;;;;;5.05;1.77;;;;;;;-145.23;100.00;58621.06;5023526;28;20276;-54
2022/05/22 02:52:06;;;;;;;5.20;1.73;;;;;;;-145.23;100.00;58621.06;5024549;28;20228;-52
2022/05/22 02:54:32;;;;;;;3.95;1.70;;;;;;;-145.23;100.00;58621.06;5026512;28;20259;-51
2022/05/22 02:56:58;;;;;;;3.03;1.43;;;;;;;-145.23;100.00;58621.06;5024053;28;20229;-52
2022/05/22 02:59:25;;;;;;;2.77;1.20;;;;;;;-145.23;100.00;58621.06;5023757;28;20243;-52
2022/05/22 03:01:51;;;;;;;2.65;1.60;;;;;;;-145.23;100.00;58621.06;5020861;28;20606;-53
2022/05/22 03:04:17;;;;;;;5.63;1.73;;;;;;;-145.23;100.00;58621.06;5024465;28;20695;-51
2022/05/22 03:06:45;;;;;;;4.50;2.33;;;;;;;-145.23;100.00;58621.06;5025685;28;20260;-55
2022/05/22 03:09:13;;;;;;;7.20;2.20;;;;;;;-145.23;100.00;58621.06;5025645;28;20298;-55
2022/05/22 03:11:41;;;;;;;4.13;2.37;;;;;;;-145.23;100.00;58621.06;5018538;28;20241;-52
2022/05/22 03:14:08;;;;;;;5.97;2.30;;;;;;;-145.23;100.00;58621.06;5017548;28;20290;-53
2022/05/22 03:16:34;;;;;;;4.60;2.28;;;;;;;-145.23;100.00;58621.06;5026699;28;20593;-53
2022/05/22 03:19:00;;;;;;;4.43;2.00;;;;;;;-145.23;100.00;58621.06;5012127;28;21029;-52
2022/05/22 03:21:27;;;;;;;10.03;3.33;;;;;;;-145.23;100.00;58621.06;5022815;28;20237;-53
2022/05/22 03:23:56;;;;;;;6.77;2.00;;;;;;;-145.23;100.00;58621.06;5018059;28;20237;-52
2022/05/22 03:26:22;;;;;;;5.87;2.43;;;;;;;-145.23;100.00;58621.06;5027617;28;20319;-53
2022/05/22 03:28:49;;;;;;;4.53;2.10;;;;;;;-145.23;100.00;58621.06;5023703;28;20304;-54
2022/05/22 03:31:16;;;;;;;3.23;1.83;;;;;;;-145.23;100.00;58621.06;5022952;28;20236;-50
2022/05/22 03:33:42;;;;;;;3.97;1.83;;;;;;;-145.23;100.00;58621.06;5015129;28;20257;-52
2022/05/22 03:36:09;;;;;;;4.60;2.13;;;;;;;-145.23;100.00;58621.06;5019788;28;20224;-51
2022/05/22 03:38:35;;;;;;;6.10;1.60;;;;;;;-145.23;100.00;58621.06;5027437;28;20601;-52
2022/05/22 03:41:03;;;;;;;1.93;1.37;;;;;;;-145.23;100.00;58621.06;5006032;28;20260;-54
2022/05/22 03:43:29;;;;;;;4.37;1.90;;;;;;;-145.23;100.00;58621.06;5024498;28;20733;-52
2022/05/22 03:45:55;;;;;;;2.00;1.67;;;;;;;-145.23;100.00;58621.06;5022220;28;20236;-54
2022/05/22 03:48:22;;;;;;;6.00;1.77;;;;;;;-145.23;100.00;58621.06;5011555;28;20284;-52
2022/05/22 03:50:49;;;;;;;5.43;2.20;;;;;;;-145.23;100.00;58621.06;5021908;28;20679;-53
2022/05/22 03:53:15;;;;;;;7.97;1.80;;;;;;;-145.23;100.00;58621.06;5029268;28;20236;-53
2022/05/22 03:55:42;;;;;;;3.43;1.50;;;;;;;-145.23;100.00;58621.06;5024619;28;20240;-52
2022/05/22 03:58:10;;;;;;;5.97;1.35;;;;;;;-145.23;100.00;58621.06;5028504;28;20232;-54
2022/05/22 04:00:36;;;;;;;5.17;2.33;;;;;;;-145.23;100.00;58621.06;5025464;28;20242;-51
2022/05/22 04:03:03;;;;;;;3.55;1.80;;;;;;;-145.23;100.00;58621.06;5022073;28;20240;-53
2022/05/22 04:05:29;;;;;;;4.83;1.87;;;;;;;-145.23;100.00;58621.06;5024064;28;20286;-53
2022/05/22 04:07:56;;;;;;;4.00;1.67;;;;;;;-145.23;100.00;58621.06;5023338;28;20249;-53
2022/05/22 04:10:22;;;;;;;5.57;1.93;;;;;;;-145.23;100.00;58621.06;5009960;28;20698;-52
2022/05/22 04:12:48;;;;;;;4.93;1.73;;;;;;;-145.23;100.00;58621.06;5019858;28;20233;-51
2022/05/22 04:15:19;;;;;;;4.83;2.30;;;;;;;-145.23;100.00;58621.06;5022282;28;20240;-53
2022/05/22 04:17:46;;;;;;;6.70;1.88;;;;;;;-145.23;100.00;58621.06;5017468;28;20225;-51
2022/05/22 04:20:13;;;;;;;7.87;1.97;;;;;;;-145.23;100.00;58621.06;5014092;28;20243;-53
2022/05/22 04:25:11;;;;;;;5.00;2.13;;;;;;;-145.23;100.00;58621.06;5021539;28;20248;-51
2022/05/22 04:25:25;;;;;;;5.40;1.80;;;;;;;-145.23;100.00;58621.06;5017851;28;20220;-52
2022/05/22 04:27:52;;;;;;;6.97;2.50;;;;;;;-145.23;100.00;58621.06;5020805;28;20345;-53
2022/05/22 04:30:20;;;;;;;5.78;2.25;;;;;;;-145.23;100.00;58621.06;5014898;28;20230;-51
2022/05/22 04:32:47;;;;;;;7.93;2.58;;;;;;;-145.23;100.00;58621.06;5024563;28;20237;-53
2022/05/22 04:35:14;;;;;;;6.15;2.33;;;;;;;-145.23;100.00;58621.06;5017292;28;20221;-53
2022/05/22 04:37:41;;;;;;;6.30;2.20;;;;;;;-145.23;100.00;58621.06;5023692;28;20578;-51
2022/05/22 04:40:08;;;;;;;6.87;1.90;;;;;;;-145.23;100.00;58621.06;5022933;28;20282;-53
2022/05/22 04:42:34;;;;;;;8.20;2.93;;;;;;;-145.23;100.00;58621.06;5017941;28;20291;-52
2022/05/22 04:45:01;;;;;;;2.70;1.40;;;;;;;-145.23;100.00;58621.06;5012905;28;20225;-52
2022/05/22 04:47:28;;;;;;;4.73;2.20;;;;;;;-145.23;100.00;58621.06;5018154;28;20253;-53
2022/05/22 04:49:55;;;;;;;6.17;2.10;;;;;;;-145.23;100.00;58621.06;5014121;28;20306;-53
2022/05/22 04:52:22;;;;;;;3.88;2.22;;;;;;;-145.23;100.00;58621.06;5023315;28;20252;-53
2022/05/22 04:54:49;;;;;;;4.50;2.03;;;;;;;-145.23;100.00;58621.06;5017439;28;20593;-52
2022/05/22 04:57:15;;;;;;;5.05;2.65;;;;;;;-145.23;100.00;58621.06;5021210;28;20232;-54
2022/05/22 04:59:41;;;;;;;5.20;2.23;;;;;;;-145.23;100.00;58621.06;5022177;28;20228;-53
2022/05/22 05:02:08;;;;;;;7.05;2.22;;;;;;;-145.23;100.00;58621.06;5020817;28;20291;-52
2022/05/22 05:04:36;;;;;;;4.38;1.95;;;;;;;-145.23;100.00;58621.06;5011800;28;20603;-52
2022/05/22 05:07:05;;;;;;;6.65;2.30;;;;;;;-145.23;100.00;58621.06;5018002;28;20221;-52
2022/05/22 05:09:32;;;;;;;8.70;2.87;;;;;;;-145.23;100.00;58621.06;5020745;28;20259;-51
2022/05/22 05:12:00;;;;;;;2.47;2.25;;;;;;;-145.23;100.00;58621.06;5022029;28;20237;-53
2022/05/22 05:14:27;;;;;;;5.00;2.38;;;;;;;-145.23;100.00;58621.06;5017296;28;20248;-56
2022/05/22 05:16:53;;;;;;;6.78;2.67;;;;;;;-145.23;100.00;58621.06;5023994;28;20290;-51
2022/05/22 05:19:20;;;;;;;2.90;1.98;;;;;;;-145.23;100.00;58621.06;5021383;28;20224;-52
2022/05/22 05:21:48;;;;;;;7.00;2.28;;;;;;;-145.23;100.00;58621.06;5022570;28;20229;-52
2022/05/22 05:24:14;;;;;;;7.43;2.72;;;;;;;-145.23;100.00;58621.06;5024628;28;20320;-51
2022/05/22 05:26:40;;;;;;;4.63;2.60;;;;;;;-145.23;100.00;58621.06;5025127;28;20232;-53
2022/05/22 05:29:07;;;;;;;10.73;3.10;;;;;;;-145.23;100.00;58621.06;5032618;28;20224;-52
2022/05/22 05:31:33;;;;;;;5.57;2.60;;;;;;;-145.23;100.00;58621.06;5028931;28;20958;-53
2022/05/22 05:34:00;;;;;;;4.50;2.20;;;;;;;-145.23;100.00;58621.06;5020635;28;20252;-54
2022/05/22 05:36:26;;;;;;;7.28;2.53;;;;;;;-145.23;100.00;58621.06;5028829;28;20248;-54
2022/05/22 05:38:54;;;;;;;6.05;2.47;;;;;;;-145.23;100.00;58621.06;5024968;28;20221;-53
2022/05/22 05:41:20;;;;;;;7.88;2.92;;;;;;;-145.23;100.00;58621.06;5026472;28;20236;-52
2022/05/22 05:43:47;;;;;;;4.28;2.38;;;;;;;-145.23;100.00;58621.06;5028641;28;20296;-54
2022/05/22 05:46:13;;;;;;;8.23;2.90;;;;;;;-145.23;100.00;58621.06;5022936;28;20261;-53
2022/05/22 05:48:39;;;;;;;4.55;1.95;;;;;;;-145.23;100.00;58621.06;5019118;28;20243;-52
2022/05/22 05:51:06;;;;;;;3.15;2.03;;;;;;;-145.23;100.00;58621.06;5020067;28;20229;-52
2022/05/22 05:53:32;;;;;;;4.78;2.20;;;;;;;-145.23;100.00;58621.06;5036749;28;20264;-51
2022/05/22 05:56:04;;;;;;;7.78;2.38;;;;;;;-145.23;100.00;58621.06;5022643;28;20225;-52
2022/05/22 05:58:30;;;;;;;4.72;2.53;;;;;;;-145.23;100.00;58621.06;5014133;28;20508;-54
2022/05/22 06:00:57;;;;;;;3.67;2.80;;;;;;;-145.23;100.00;58621.06;5024617;28;20310;-52
2022/05/22 06:03:23;;;;;;;5.90;2.72;;;;;;;-145.23;100.00;58621.06;5027112;28;20236;-53
2022/05/22 06:05:50;;;;;;;6.75;2.55;;;;;;;-145.23;100.00;58621.06;5011276;28;20229;-52
2022/05/22 06:08:16;;;;;;;6.45;2.33;;;;;;;-145.23;100.00;58621.06;5021332;28;20252;-52
2022/05/22 06:10:43;;;;;;;1.88;1.65;;;;;;;-145.23;100.00;58621.06;5019019;28;20975;-52
2022/05/22 06:13:10;;;;;;;4.45;1.98;;;;;;;-145.23;100.00;58621.06;5027211;28;20259;-53
2022/05/22 06:15:37;;;;;;;4.90;2.88;;;;;;;-145.23;100.00;58621.06;5018963;28;20283;-54
2022/05/22 06:18:03;;;;;;;5.20;2.17;;;;;;;-145.23;100.00;58621.06;5021011;28;20229;-53
2022/05/22 06:20:30;;;;;;;5.25;2.03;;;;;;;-145.23;100.00;58621.06;5027383;28;20240;-52
2022/05/22 06:22:56;;;;;;;4.70;2.40;;;;;;;-145.23;100.00;58621.06;5020800;28;20689;-53
2022/05/22 06:25:23;;;;;;;5.75;2.28;;;;;;;-145.23;100.00;58621.06;5024624;28;20232;-54
2022/05/22 06:27:49;;;;;;;3.70;2.00;;;;;;;-145.23;100.00;58621.06;5027819;28;20699;-53
2022/05/22 06:30:18;;;;;;;6.53;2.50;;;;;;;-145.23;100.00;58621.06;5026123;28;20645;-52
2022/05/22 06:32:44;;;;;;;4.70;1.92;;;;;;;-145.23;100.00;58621.06;5019679;28;20794;-52
2022/05/22 06:35:13;;;;;;;7.20;2.05;;;;;;;-145.23;100.00;58621.06;5029814;28;20267;-53
2022/05/22 06:37:39;;;;;;;6.53;2.85;;;;;;;-145.23;100.00;58621.06;5019479;28;20241;-51
2022/05/22 06:40:07;;;;;;;5.43;1.95;;;;;;;-145.23;100.00;58621.06;5022459;28;20253;-53
2022/05/22 06:42:35;;;;;;;4.22;1.95;;;;;;;-145.23;100.00;58621.06;5018715;28;20750;-51
2022/05/22 06:45:05;;;;;;;8.00;2.45;;;;;;;-145.23;100.00;58621.06;5008503;28;20237;-52
2022/05/22 06:47:34;;;;;;;5.93;2.17;;;;;;;-145.23;100.00;58621.06;5012907;28;20256;-53
2022/05/22 06:50:03;;;;;;;6.90;2.13;;;;;;;-145.23;100.00;58621.06;5025109;28;20224;-52
2022/05/22 06:52:31;;;;;;;3.22;1.95;;;;;;;-145.23;100.00;58621.06;5027025;28;20754;-52
2022/05/22 06:54:57;;;;;;;3.35;1.70;;;;;;;-145.23;100.00;58621.06;5026613;28;20232;-54
2022/05/22 06:57:23;;;;;;;5.47;2.20;;;;;;;-145.23;100.00;58621.06;5023671;28;20615;-52
2022/05/22 06:59:54;;;;;;;4.50;1.90;;;;;;;-145.23;100.00;58621.06;5021738;28;20247;-51
2022/05/22 07:02:20;;;;;;;6.57;1.83;;;;;;;-145.23;100.00;58621.06;5017048;28;20624;-52
2022/05/22 07:04:48;;;;;;;4.18;1.77;;;;;;;-145.23;100.00;58621.06;5018416;28;20229;-53
2022/05/22 07:07:14;;;;;;;5.53;2.30;;;;;;;-145.23;100.00;58621.06;5029388;28;20295;-51
2022/05/22 07:09:40;;;;;;;4.97;1.98;;;;;;;-145.23;100.00;58621.06;5025560;28;20617;-53
2022/05/22 07:12:09;;;;;;;4.30;1.73;;;;;;;-145.23;100.00;58621.06;5016690;28;20253;-52
2022/05/22 07:14:35;;;;;;;4.55;1.65;;;;;;;-145.23;100.00;58621.06;5024877;28;20228;-54
2022/05/22 07:17:02;;;;;;;4.03;1.40;;;;;;;-145.23;100.00;58621.06;5025489;28;20228;-53
2022/05/22 07:19:29;;;;;;;3.92;1.42;;;;;;;-145.23;100.00;58621.06;5025111;28;20225;-53
2022/05/22 07:21:56;;;;;;;4.78;1.85;;;;;;;-145.23;100.00;58621.06;5025053;28;20268;-53
2022/05/22 07:24:23;;;;;;;3.50;1.90;;;;;;;-145.23;100.00;58621.06;5025556;28;20240;-52
2022/05/22 07:26:49;;;;;;;6.80;2.28;;;;;;;-145.23;100.00;58621.06;5011989;28;20287;-52
2022/05/22 07:29:16;;;;;;;4.03;1.55;;;;;;;-145.23;100.00;58621.06;5019022;28;20260;-52
2022/05/22 07:31:42;;;;;;;5.20;1.55;;;;;;;-145.23;100.00;58621.06;5021662;28;20748;-56
2022/05/22 07:34:08;;;;;;;4.68;2.08;;;;;;;-145.23;100.00;58621.06;5024730;28;20306;-54
2022/05/22 07:36:35;;;;;;;3.08;1.25;;;;;;;-145.23;100.00;58621.06;5017095;28;20248;-53
2022/05/22 07:39:03;;;;;;;3.03;1.38;;;;;;;-145.23;100.00;58621.06;5027413;28;20229;-52
2022/05/22 07:41:30;;;;;;;3.55;1.52;;;;;;;-145.23;100.00;58621.06;5021460;28;20271;-54
2022/05/22 07:43:57;;;;;;;5.20;1.65;;;;;;;-145.23;100.00;58621.06;5018856;28;20255;-52
2022/05/22 07:46:23;;;;;;;3.75;1.27;;;;;;;-145.23;100.00;58621.06;5017396;28;20710;-53
2022/05/22 07:48:50;;;;;;;3.35;1.50;;;;;;;-145.23;100.00;58621.06;5021156;28;20232;-54
2022/05/22 07:51:17;;;;;;;1.02;1.00;;;;;;;-145.23;100.00;58621.06;5017871;28;20286;-52
2022/05/22 07:53:43;;;;;;;5.60;1.42;;;;;;;-145.23;100.00;58621.06;5025590;28;20244;-52
2022/05/22 07:56:12;;;;;;;3.60;1.77;;;;;;;-145.23;100.00;58621.06;5013316;28;20249;-52
2022/05/22 07:58:39;;;;;;;1.58;1.33;;;;;;;-145.23;100.00;58621.06;5007614;28;20237;-52
2022/05/22 08:01:06;;;;;;;2.80;0.95;;;;;;;-145.23;100.00;58621.06;5028329;28;20286;-56
2022/05/22 08:03:33;;;;;;;4.00;1.42;;;;;;;-145.23;100.00;58621.06;5026892;28;20256;-53
2022/05/22 08:06:00;;;;;;;3.03;0.93;;;;;;;-145.23;100.00;58621.06;5028381;28;20238;-55
2022/05/22 08:08:27;;;;;;;1.88;1.33;;;;;;;-145.23;100.00;58621.06;5024182;28;20308;-53
2022/05/22 08:10:54;;;;;;;5.05;1.17;;;;;;;-145.23;100.00;58621.06;5021827;28;20259;-53
2022/05/22 08:13:22;;;;;;;1.45;1.13;;;;;;;-145.23;100.00;58621.06;5018609;28;20232;-53
2022/05/22 08:15:48;;;;;;;2.00;0.88;;;;;;;-145.23;100.00;58621.06;5021115;28;20267;-53
2022/05/22 08:18:15;;;;;;;2.55;1.10;;;;;;;-145.23;100.00;58621.06;5018278;28;20228;-53
2022/05/22 08:20:44;;;;;;;3.20;1.40;;;;;;;-145.23;100.00;58621.06;5020011;28;20310;-52
2022/05/22 08:23:13;;;;;;;2.45;1.58;;;;;;;-145.23;100.00;58621.06;5024961;28;20316;-52
2022/05/22 08:25:39;;;;;;;5.25;1.05;;;;;;;-145.23;100.00;58621.06;5016197;28;20307;-52
2022/05/22 08:28:06;;;;;;;3.03;1.25;;;;;;;-145.23;100.00;58621.06;5018348;28;20251;-52
2022/05/22 08:30:34;;;;;;;3.85;1.48;;;;;;;-145.23;100.00;58621.06;5013991;28;20264;-53
2022/05/22 08:33:01;;;;;;;3.85;1.63;;;;;;;-145.23;100.00;58621.06;5011772;28;20294;-54
2022/05/22 08:35:30;;;;;;;2.17;1.15;;;;;;;-145.23;100.00;58621.06;5013712;28;20235;-53
2022/05/22 08:37:57;;;;;;;3.92;1.58;;;;;;;-145.23;100.00;58621.06;5016386;28;20247;-54
2022/05/22 08:40:24;;;;;;;4.05;1.67;;;;;;;-145.23;100.00;58621.06;5023207;28;20228;-54
2022/05/22 08:42:53;;;;;;;5.15;1.15;;;;;;;-145.23;100.00;58621.06;5014683;28;20237;-51
2022/05/22 08:45:22;;;;;;;2.72;1.02;;;;;;;-145.23;100.00;58621.06;5023257;28;20239;-52
2022/05/22 08:47:58;;;;;;;2.47;1.20;;;;;;;-145.23;100.00;58621.06;5015340;28;20336;-52
2022/05/22 08:50:25;;;;;;;2.17;1.10;;;;;;;-145.23;100.00;58621.06;5017447;28;20254;-52
2022/05/22 08:52:56;;;;;;;1.90;1.20;;;;;;;-145.23;100.00;58621.06;5010456;28;20585;-52
2022/05/22 08:58:55;;;;;;;1.70;1.15;;;;;;;-145.23;100.00;58621.06;5024514;28;20290;-52
2022/05/22 09:01:00;;;;;;;3.10;1.23;;;;;;;-145.23;100.00;58621.06;5020820;28;20367;-53
2022/05/22 09:03:33;;;;;;;2.50;1.23;;;;;;;-145.23;100.00;58621.06;5016157;28;20302;-52
2022/05/22 09:06:03;;;;;;;3.20;1.38;;;;;;;-145.23;100.00;58621.06;5023118;28;20655;-52
2022/05/22 09:08:38;;;;;;;2.40;1.00;;;;;;;-145.23;100.00;58621.06;5013847;28;20641;-54
2022/05/22 09:11:08;;;;;;;3.03;1.33;;;;;;;-145.23;100.00;58621.06;5022014;28;20330;-52
2022/05/22 09:13:38;;;;;;;3.03;1.10;;;;;;;-145.23;100.00;58621.06;5021602;28;20233;-55
2022/05/22 09:16:12;;;;;;;4.82;1.38;;;;;;;-145.23;100.00;58621.06;5018280;28;20596;-54
2022/05/22 09:18:45;;;;;;;2.78;2.10;;;;;;;-145.23;100.00;58621.06;5020693;28;20228;-52
2022/05/22 09:21:20;;;;;;;2.70;1.00;;;;;;;-145.23;100.00;58621.06;5025166;28;20715;-53
2022/05/22 09:23:57;;;;;;;2.17;1.63;;;;;;;-145.23;100.00;58621.06;5023551;28;20260;-51
2022/05/22 09:26:31;;;;;;;2.20;1.55;;;;;;;-145.23;100.00;58621.06;5020248;28;20227;-52
2022/05/22 09:29:02;;;;;;;1.77;1.20;;;;;;;-145.23;100.00;58621.06;5016661;28;20256;-52
2022/05/22 09:31:36;;;;;;;3.50;1.45;;;;;;;-145.23;100.00;58621.06;5021826;28;20252;-58
2022/05/22 09:34:09;;;;;;;2.83;1.17;;;;;;;-145.23;100.00;58621.06;5023931;28;20236;-53
2022/05/22 09:36:43;;;;;;;2.70;1.60;;;;;;;-145.23;100.00;58621.06;5024279;28;20239;-53
2022/05/22 09:39:20;;;;;;;5.53;1.70;;;;;;;-145.23;100.00;58621.06;5023042;28;20240;-52
2022/05/22 09:41:55;;;;;;;4.82;1.70;;;;;;;-145.23;100.00;58621.06;5018037;28;20238;-56
2022/05/22 09:44:45;;;;;;;4.18;3.15;;;;;;;-145.23;100.00;58621.06;5019686;28;20251;-52
2022/05/22 09:47:27;;;;;;;3.15;2.55;;;;;;;-145.23;100.00;58621.06;5023501;28;20232;-52
2022/05/22 09:50:06;;;;;;;5.63;3.20;;;;;;;-145.23;100.00;58621.06;5018145;28;20302;-53
2022/05/22 09:52:38;;;;;;;8.77;5.38;;;;;;;-145.23;100.00;58621.06;5018009;28;20233;-56
2022/05/22 09:55:23;;;;;;;2.63;1.80;;;;;;;-145.23;100.00;58621.06;5022368;28;20248;-53
2022/05/22 09:58:00;;;;;;;1.92;1.70;;;;;;;-145.23;100.00;58621.06;5028035;28;20227;-52
2022/05/22 10:00:31;;;;;;;4.28;2.30;;;;;;;-145.23;100.00;58621.06;5024292;28;20244;-52
2022/05/22 10:03:02;;;;;;;2.33;1.33;;;;;;;-145.23;100.00;58621.06;5027515;28;20677;-54
2022/05/22 10:05:36;;;;;;;1.95;1.40;;;;;;;-145.23;100.00;58621.06;5019155;28;20633;-52
2022/05/22 10:08:11;;;;;;;2.15;1.15;;;;;;;-145.23;100.00;58621.06;5019561;28;20236;-52
2022/05/22 10:10:42;;;;;;;1.38;0.90;;;;;;;-145.23;100.00;58621.06;5022193;28;20259;-52
2022/05/22 10:13:14;;;;;;;1.95;1.25;;;;;;;-145.23;100.00;58621.06;5015021;28;20294;-52
2022/05/22 10:15:47;;;;;;;5.60;1.50;;;;;;;-145.23;100.00;58621.06;5021309;28;20279;-52
2022/05/22 10:18:25;;;;;;;1.92;0.93;;;;;;;-145.23;100.00;58621.06;5019431;28;20232;-53
2022/05/22 10:21:04;;;;;;;7.80;1.83;;;;;;;-145.23;100.00;58621.06;5027115;28;20236;-52
2022/05/22 10:23:38;;;;;;;5.07;2.03;;;;;;;-145.23;100.00;58621.06;5019475;28;20304;-52
2022/05/22 10:26:11;;;;;;;1.95;1.52;;;;;;;-145.23;100.00;58621.06;5024556;28;20224;-52
2022/05/22 10:28:44;;;;;;;4.53;2.67;;;;;;;-145.23;100.00;58621.06;5018988;28;20773;-53
2022/05/22 10:31:14;;;;;;;4.28;2.25;;;;;;;-145.23;100.00;58621.06;5025357;28;20239;-51
2022/05/22 10:33:48;;;;;;;4.65;2.25;;;;;;;-145.23;100.00;58621.06;5026488;28;20270;-51
2022/05/22 10:36:17;;;;;;;2.95;1.80;;;;;;;-145.23;100.00;58621.06;5025645;28;20324;-52
2022/05/22 10:38:46;;;;;;;2.67;1.80;;;;;;;-145.23;100.00;58621.06;5018279;28;20220;-53
2022/05/22 10:44:06;;;;;;;6.15;2.17;;;;;;;-145.23;100.00;58621.06;5016142;28;20243;-52
2022/05/22 10:46:32;;;;;;;3.17;2.88;;;;;;;-145.23;100.00;58621.06;5023849;28;20232;-52
2022/05/22 10:48:58;;;;;;;3.00;1.05;;;;;;;-145.23;100.00;58621.06;5025719;28;20225;-58
2022/05/22 10:51:28;;;;;;;1.50;1.00;;;;;;;-145.23;100.00;58621.06;5019621;28;20233;-52
2022/05/22 10:53:56;;;;;;;2.60;1.00;;;;;;;-145.23;100.00;58621.06;5018011;28;20225;-54
2022/05/22 10:56:26;;;;;;;1.70;1.20;;;;;;;-145.23;100.00;58621.06;5024313;28;20699;-54
2022/05/22 10:58:54;;;;;;;2.58;1.02;;;;;;;-145.23;100.00;58621.06;5022587;28;20232;-53
2022/05/22 11:01:23;;;;;;;1.95;0.85;;;;;;;-145.23;100.00;58621.06;5023544;28;20286;-53
2022/05/22 11:04:01;;;;;;;2.25;1.23;;;;;;;-145.23;100.00;58621.06;5018624;28;20675;-53
2022/05/22 11:06:29;;;;;;;3.85;1.13;;;;;;;-145.23;100.00;58621.06;5020164;28;20225;-53
2022/05/22 11:08:56;;;;;;;2.10;1.10;;;;;;;-145.23;100.00;58621.06;5019802;28;20298;-52
2022/05/22 11:11:25;;;;;;;2.42;1.35;;;;;;;-145.23;100.00;58621.06;5023623;28;20256;-54
2022/05/22 11:13:52;;;;;;;2.88;1.13;;;;;;;-145.23;100.00;58621.06;5025718;28;20251;-53
2022/05/22 11:16:20;;;;;;;2.22;0.90;;;;;;;-145.23;100.00;58621.06;5017015;28;20229;-52
2022/05/22 11:18:47;;;;;;;0.93;0.90;;;;;;;-145.23;100.00;58621.06;5018110;28;20256;-53
2022/05/22 11:21:20;;;;;;;3.90;1.25;;;;;;;-145.23;100.00;58621.06;5026020;28;20255;-52
2022/05/22 11:23:57;;;;;;;1.95;1.05;;;;;;;-145.23;100.00;58621.06;5023425;28;20252;-53